createdAt,value
2018-12-10T00:00:09.445Z,4.30
2018-12-10T00:02:39.253Z,4.30
2018-12-10T00:05:08.178Z,4.30
2018-12-10T00:07:36.896Z,4.40
2018-12-10T00:10:05.842Z,4.40
2018-12-10T00:12:34.733Z,4.40
2018-12-10T00:15:03.234Z,4.40
2018-12-10T00:17:31.469Z,4.40
2018-12-10T00:20:00.302Z,4.40
2018-12-10T00:22:28.733Z,4.40
2018-12-10T00:24:57.632Z,4.40
2018-12-10T00:27:26.135Z,4.40
2018-12-10T00:29:54.493Z,4.30
2018-12-10T00:32:23.761Z,4.30
2018-12-10T00:34:52.124Z,4.30
2018-12-10T00:37:20.685Z,4.30
2018-12-10T00:39:48.906Z,4.20
2018-12-10T00:42:17.902Z,4.20
2018-12-10T00:44:46.120Z,4.30
2018-12-10T00:47:14.911Z,4.20
2018-12-10T00:49:44.866Z,4.20
2018-12-10T00:52:13.317Z,4.20
2018-12-10T00:54:41.981Z,4.20
2018-12-10T00:57:10.570Z,4.20
2018-12-10T00:59:39.341Z,4.10
2018-12-10T01:02:08.592Z,4.10
2018-12-10T01:04:37.434Z,4.10
2018-12-10T01:07:06.286Z,4.00
2018-12-10T01:09:34.717Z,3.90
2018-12-10T01:12:04.146Z,3.90
2018-12-10T01:14:32.953Z,3.80
2018-12-10T01:17:01.589Z,3.70
2018-12-10T01:19:29.833Z,3.60
2018-12-10T01:21:58.977Z,3.60
2018-12-10T01:24:27.773Z,3.50
2018-12-10T01:26:57.265Z,3.40
2018-12-10T01:29:26.060Z,3.40
2018-12-10T01:31:55.509Z,3.30
2018-12-10T01:34:23.820Z,3.30
2018-12-10T01:36:52.500Z,3.30
2018-12-10T01:39:21.405Z,3.30
2018-12-10T01:41:49.736Z,3.30
2018-12-10T01:44:18.482Z,3.30
2018-12-10T01:46:47.314Z,3.30
2018-12-10T01:49:16.037Z,3.40
2018-12-10T01:51:44.538Z,3.50
2018-12-10T01:54:13.413Z,3.60
2018-12-10T01:56:42.278Z,3.60
2018-12-10T01:59:10.686Z,3.60
2018-12-10T02:01:39.175Z,3.70
2018-12-10T02:04:07.433Z,3.70
2018-12-10T02:06:35.665Z,3.70
2018-12-10T02:09:05.596Z,3.70
2018-12-10T02:11:33.980Z,3.70
2018-12-10T02:14:02.850Z,3.70
2018-12-10T02:16:31.196Z,3.70
2018-12-10T02:18:59.545Z,3.70
2018-12-10T02:21:27.916Z,3.70
2018-12-10T02:23:56.592Z,3.70
2018-12-10T02:26:25.393Z,3.70
2018-12-10T02:28:59.213Z,3.70
2018-12-10T02:31:27.594Z,3.60
2018-12-10T02:33:57.330Z,3.70
2018-12-10T02:36:25.711Z,3.70
2018-12-10T02:38:54.117Z,3.70
2018-12-10T02:41:22.885Z,3.70
2018-12-10T02:43:51.629Z,3.70
2018-12-10T02:46:19.890Z,3.70
2018-12-10T02:48:48.217Z,3.70
2018-12-10T02:51:17.041Z,3.60
2018-12-10T02:53:45.923Z,3.70
2018-12-10T02:56:14.806Z,3.70
2018-12-10T02:58:45.310Z,3.60
2018-12-10T03:01:14.086Z,3.60
2018-12-10T03:03:42.860Z,3.60
2018-12-10T03:06:11.396Z,3.60
2018-12-10T03:08:39.836Z,3.50
2018-12-10T03:11:09.118Z,3.60
2018-12-10T03:13:37.849Z,3.60
2018-12-10T03:16:06.590Z,3.60
2018-12-10T03:18:35.167Z,3.60
2018-12-10T03:21:03.925Z,3.60
2018-12-10T03:23:33.154Z,3.60
2018-12-10T03:26:01.703Z,3.60
2018-12-10T03:28:30.348Z,3.60
2018-12-10T03:30:58.610Z,3.60
2018-12-10T03:33:27.123Z,3.60
2018-12-10T03:35:55.833Z,3.60
2018-12-10T03:38:25.074Z,3.60
2018-12-10T03:40:54.088Z,3.60
2018-12-10T03:43:22.498Z,3.70
2018-12-10T03:45:51.345Z,3.70
2018-12-10T03:48:19.878Z,3.70
2018-12-10T03:50:48.297Z,3.70
2018-12-10T03:53:17.586Z,3.60
2018-12-10T03:55:46.315Z,3.60
2018-12-10T03:58:14.898Z,3.60
2018-12-10T04:00:43.359Z,3.60
2018-12-10T04:03:12.056Z,3.60
2018-12-10T04:05:40.964Z,3.60
2018-12-10T04:08:09.220Z,3.60
2018-12-10T04:10:37.828Z,3.60
2018-12-10T04:13:06.782Z,3.60
2018-12-10T04:15:35.169Z,3.60
2018-12-10T04:18:04.596Z,3.60
2018-12-10T04:20:34.181Z,3.60
2018-12-10T04:23:03.696Z,3.60
2018-12-10T04:25:32.641Z,3.60
2018-12-10T04:28:01.178Z,3.40
2018-12-10T04:30:29.453Z,3.20
2018-12-10T04:32:58.114Z,3.20
2018-12-10T04:35:26.352Z,3.10
2018-12-10T04:37:54.774Z,3.10
2018-12-10T04:40:23.457Z,3.10
2018-12-10T04:42:52.158Z,3.10
2018-12-10T04:45:20.934Z,3.00
2018-12-10T04:47:50.122Z,3.00
2018-12-10T04:50:18.502Z,2.90
2018-12-10T04:52:47.098Z,2.90
2018-12-10T04:55:15.520Z,3.00
2018-12-10T04:57:44.223Z,3.00
2018-12-10T05:00:13.010Z,2.90
2018-12-10T05:02:41.567Z,2.80
2018-12-10T05:05:11.539Z,2.70
2018-12-10T05:07:39.822Z,2.60
2018-12-10T05:10:08.477Z,2.60
2018-12-10T05:12:36.732Z,2.50
2018-12-10T05:15:05.377Z,2.40
2018-12-10T05:17:33.790Z,2.40
2018-12-10T05:20:04.039Z,2.30
2018-12-10T05:22:32.685Z,2.20
2018-12-10T05:25:00.947Z,2.20
2018-12-10T05:27:29.142Z,2.20
2018-12-10T05:29:57.588Z,2.10
2018-12-10T05:32:25.894Z,2.10
2018-12-10T05:34:54.543Z,2.10
2018-12-10T05:37:22.870Z,2.10
2018-12-10T05:39:51.125Z,2.00
2018-12-10T05:42:19.913Z,2.00
2018-12-10T05:44:48.224Z,2.00
2018-12-10T05:47:16.664Z,2.10
2018-12-10T05:49:45.664Z,2.20
2018-12-10T05:52:13.914Z,2.20
2018-12-10T05:54:42.420Z,2.10
2018-12-10T05:57:10.698Z,2.00
2018-12-10T05:59:38.993Z,1.90
2018-12-10T06:02:09.072Z,1.90
2018-12-10T06:04:43.992Z,1.90
2018-12-10T06:07:12.342Z,1.90
2018-12-10T06:09:41.377Z,2.00
2018-12-10T06:12:09.649Z,2.00
2018-12-10T06:14:38.441Z,2.00
2018-12-10T06:17:06.698Z,2.10
2018-12-10T06:19:34.938Z,2.20
2018-12-10T06:22:03.389Z,2.20
2018-12-10T06:24:33.102Z,2.30
2018-12-10T06:27:01.790Z,2.30
2018-12-10T06:29:30.538Z,2.30
2018-12-10T06:31:59.080Z,2.40
2018-12-10T06:34:28.001Z,2.40
2018-12-10T06:36:56.321Z,2.40
2018-12-10T06:39:24.590Z,2.50
2018-12-10T06:41:53.881Z,2.60
2018-12-10T06:44:22.200Z,2.60
2018-12-10T06:46:50.588Z,2.70
2018-12-10T06:49:18.882Z,2.70
2018-12-10T06:51:47.809Z,2.70
2018-12-10T06:54:16.371Z,2.70
2018-12-10T06:56:44.553Z,2.70
2018-12-10T06:59:12.865Z,2.60
2018-12-10T07:01:41.607Z,2.60
2018-12-10T07:04:10.720Z,2.60
2018-12-10T07:06:39.222Z,2.50
2018-12-10T07:09:07.514Z,2.50
2018-12-10T07:11:35.696Z,2.50
2018-12-10T07:14:04.314Z,2.50
2018-12-10T07:16:32.701Z,2.50
2018-12-10T07:19:01.112Z,2.50
2018-12-10T07:21:29.578Z,2.50
2018-12-10T07:23:57.759Z,2.50
2018-12-10T07:26:26.169Z,2.40
2018-12-10T07:28:54.523Z,2.40
2018-12-10T07:31:22.859Z,2.40
2018-12-10T07:33:51.180Z,2.40
2018-12-10T07:36:19.561Z,2.50
2018-12-10T07:38:47.984Z,2.50
2018-12-10T07:41:16.293Z,2.50
2018-12-10T07:43:44.840Z,2.60
2018-12-10T07:46:13.202Z,2.60
2018-12-10T07:48:41.518Z,2.60
2018-12-10T07:51:09.706Z,2.60
2018-12-10T07:53:37.897Z,2.70
2018-12-10T07:56:06.219Z,2.70
2018-12-10T07:58:34.564Z,2.70
2018-12-10T08:01:02.940Z,2.60
2018-12-10T08:03:31.216Z,2.60
2018-12-10T08:06:00.031Z,2.60
2018-12-10T08:08:28.247Z,2.70
2018-12-10T08:10:57.216Z,2.60
2018-12-10T08:13:25.461Z,2.60
2018-12-10T08:15:53.681Z,2.60
2018-12-10T08:18:22.029Z,2.60
2018-12-10T08:20:50.260Z,2.60
2018-12-10T08:23:18.558Z,2.70
2018-12-10T08:25:46.785Z,2.90
2018-12-10T08:28:14.988Z,3.00
2018-12-10T08:30:43.174Z,3.10
2018-12-10T08:33:11.610Z,3.10
2018-12-10T08:35:40.907Z,3.10
2018-12-10T08:38:09.844Z,3.10
2018-12-10T08:40:38.241Z,3.10
2018-12-10T08:43:06.428Z,3.00
2018-12-10T08:45:35.012Z,2.90
2018-12-10T08:48:03.181Z,2.80
2018-12-10T08:50:31.610Z,2.80
2018-12-10T08:52:59.886Z,2.80
2018-12-10T08:55:28.349Z,2.80
2018-12-10T08:57:56.683Z,2.90
2018-12-10T09:00:25.022Z,3.10
2018-12-10T09:02:53.236Z,3.20
2018-12-10T09:05:21.442Z,3.30
2018-12-10T09:07:49.810Z,3.30
2018-12-10T09:10:18.103Z,3.20
2018-12-10T09:12:47.161Z,3.20
2018-12-10T09:15:15.990Z,3.10
2018-12-10T09:17:44.228Z,3.00
2018-12-10T09:20:12.534Z,3.00
2018-12-10T09:22:41.112Z,2.90
2018-12-10T09:25:09.778Z,2.90
2018-12-10T09:27:38.031Z,2.90
2018-12-10T09:30:09.262Z,3.00
2018-12-10T09:32:37.545Z,3.10
2018-12-10T09:35:05.955Z,3.20
2018-12-10T09:37:34.297Z,3.30
2018-12-10T09:40:02.755Z,3.40
2018-12-10T09:42:31.040Z,3.40
2018-12-10T09:44:59.325Z,3.40
2018-12-10T09:47:27.504Z,3.40
2018-12-10T09:49:56.855Z,3.40
2018-12-10T09:52:25.085Z,3.40
2018-12-10T09:54:53.329Z,3.50
2018-12-10T09:57:21.625Z,3.50
2018-12-10T09:59:49.950Z,3.50
2018-12-10T10:02:18.566Z,3.50
2018-12-10T10:04:46.960Z,3.60
2018-12-10T10:07:15.346Z,3.60
2018-12-10T10:09:43.665Z,3.60
2018-12-10T10:12:11.920Z,3.70
2018-12-10T10:14:40.225Z,3.70
2018-12-10T10:17:08.904Z,3.70
2018-12-10T10:19:37.109Z,3.80
2018-12-10T10:22:05.362Z,4.00
2018-12-10T10:24:33.764Z,4.00
2018-12-10T10:27:02.114Z,4.00
2018-12-10T10:29:30.667Z,4.10
2018-12-10T10:31:59.464Z,4.00
2018-12-10T10:34:27.831Z,4.00
2018-12-10T10:36:56.064Z,4.00
2018-12-10T10:39:24.314Z,3.90
2018-12-10T10:41:52.582Z,3.90
2018-12-10T10:44:21.105Z,3.90
2018-12-10T10:46:49.662Z,4.10
2018-12-10T10:49:18.069Z,4.30
2018-12-10T10:51:46.366Z,4.30
2018-12-10T10:54:14.650Z,4.40
2018-12-10T10:56:42.834Z,4.50
2018-12-10T10:59:11.304Z,4.50
2018-12-10T11:01:45.119Z,4.50
2018-12-10T11:04:13.438Z,4.50
2018-12-10T11:06:42.693Z,4.50
2018-12-10T11:09:15.171Z,4.60
2018-12-10T11:11:41.275Z,4.60
2018-12-10T11:14:09.521Z,4.60
2018-12-10T11:16:37.830Z,4.70
2018-12-10T11:19:06.027Z,4.80
2018-12-10T11:21:34.254Z,4.80
2018-12-10T11:24:02.437Z,4.90
2018-12-10T11:26:30.842Z,4.80
2018-12-10T11:28:59.160Z,4.90
2018-12-10T11:31:27.624Z,4.90
2018-12-10T11:33:56.128Z,5.00
2018-12-10T11:36:24.501Z,4.90
2018-12-10T11:38:57.983Z,4.90
2018-12-10T11:41:22.881Z,4.90
2018-12-10T11:43:51.222Z,4.90
2018-12-10T11:46:19.633Z,5.00
2018-12-10T11:48:47.873Z,5.20
2018-12-10T11:51:16.200Z,5.20
2018-12-10T11:53:44.386Z,5.20
2018-12-10T11:56:12.613Z,5.30
2018-12-10T11:58:41.118Z,5.40
2018-12-10T12:01:09.337Z,5.60
2018-12-10T12:03:37.520Z,5.60
2018-12-10T12:06:06.127Z,5.60
2018-12-10T12:08:35.221Z,5.50
2018-12-10T12:11:03.704Z,5.50
2018-12-10T12:13:31.948Z,5.40
2018-12-10T12:16:00.145Z,5.40
2018-12-10T12:18:28.713Z,5.30
2018-12-10T12:20:56.993Z,5.30
2018-12-10T12:23:25.702Z,5.20
2018-12-10T12:25:54.273Z,5.30
2018-12-10T12:28:22.695Z,5.30
2018-12-10T12:30:51.247Z,5.20
2018-12-10T12:33:19.636Z,5.10
2018-12-10T12:35:48.417Z,5.00
2018-12-10T12:38:17.422Z,5.00
2018-12-10T12:40:46.009Z,4.90
2018-12-10T12:43:16.271Z,4.80
2018-12-10T12:45:44.916Z,4.90
2018-12-10T12:48:13.170Z,5.10
2018-12-10T12:50:41.446Z,5.20
2018-12-10T12:53:09.749Z,5.40
2018-12-10T12:55:38.233Z,5.50
2018-12-10T12:58:06.977Z,5.50
2018-12-10T13:00:41.858Z,5.60
2018-12-10T13:03:06.880Z,5.60
2018-12-10T13:05:35.576Z,5.70
2018-12-10T13:08:03.808Z,5.50
2018-12-10T13:10:32.113Z,5.40
2018-12-10T13:13:00.468Z,5.20
2018-12-10T13:15:28.858Z,5.30
2018-12-10T13:17:57.121Z,5.20
2018-12-10T13:20:25.537Z,5.20
2018-12-10T13:22:53.805Z,5.20
2018-12-10T13:25:22.737Z,5.20
2018-12-10T13:27:51.035Z,5.10
2018-12-10T13:30:19.405Z,5.00
2018-12-10T13:32:47.960Z,5.00
2018-12-10T13:35:16.333Z,4.90
2018-12-10T13:37:45.969Z,4.90
2018-12-10T13:40:15.347Z,4.90
2018-12-10T13:42:45.335Z,4.80
2018-12-10T13:45:14.070Z,4.80
2018-12-10T13:47:42.397Z,4.70
2018-12-10T13:50:10.636Z,4.70
2018-12-10T13:52:38.891Z,4.80
2018-12-10T13:55:07.385Z,4.80
2018-12-10T13:57:35.655Z,4.90
2018-12-10T14:00:04.426Z,4.90
2018-12-10T14:02:32.790Z,4.80
2018-12-10T14:05:07.102Z,4.70
2018-12-10T14:07:35.337Z,4.60
2018-12-10T14:10:05.036Z,4.60
2018-12-10T14:12:33.326Z,4.50
2018-12-10T14:15:01.669Z,4.50
2018-12-10T14:17:29.884Z,4.50
2018-12-10T14:19:58.320Z,4.40
2018-12-10T14:22:26.656Z,4.40
2018-12-10T14:24:55.561Z,4.30
2018-12-10T14:27:24.535Z,4.30
2018-12-10T14:29:53.225Z,4.30
2018-12-10T14:32:22.338Z,4.30
2018-12-10T14:34:50.721Z,4.30
2018-12-10T14:37:18.968Z,4.20
2018-12-10T14:39:47.177Z,4.10
2018-12-10T14:42:23.657Z,4.10
2018-12-10T14:44:52.133Z,4.10
2018-12-10T14:47:20.588Z,4.10
2018-12-10T14:49:48.961Z,4.10
2018-12-10T14:52:17.233Z,4.10
2018-12-10T14:54:45.529Z,4.00
2018-12-10T14:57:13.773Z,4.00
2018-12-10T14:59:42.506Z,4.00
2018-12-10T15:02:11.128Z,3.90
2018-12-10T15:04:39.486Z,3.70
2018-12-10T15:07:07.913Z,3.60
2018-12-10T15:09:36.393Z,3.50
2018-12-10T15:12:04.648Z,3.50
2018-12-10T15:14:33.208Z,3.60
2018-12-10T15:17:01.689Z,3.60
2018-12-10T15:19:29.967Z,3.60
2018-12-10T15:21:58.606Z,3.60
2018-12-10T15:24:26.891Z,3.50
2018-12-10T15:26:55.053Z,3.50
2018-12-10T15:29:23.405Z,3.50
2018-12-10T15:31:52.073Z,3.40
2018-12-10T15:34:20.369Z,3.40
2018-12-10T15:36:49.251Z,3.40
2018-12-10T15:39:17.469Z,3.30
2018-12-10T15:41:45.709Z,3.30
2018-12-10T15:44:13.987Z,3.20
2018-12-10T15:46:42.170Z,3.20
2018-12-10T15:49:10.690Z,3.20
2018-12-10T15:51:38.917Z,3.20
2018-12-10T15:54:07.813Z,3.20
2018-12-10T15:56:36.638Z,3.10
2018-12-10T15:59:05.238Z,3.10
2018-12-10T16:01:33.489Z,3.10
2018-12-10T16:04:02.182Z,3.20
2018-12-10T16:06:32.514Z,3.20
2018-12-10T16:09:00.779Z,3.20
2018-12-10T16:11:29.120Z,3.10
2018-12-10T16:13:57.669Z,3.10
2018-12-10T16:16:26.556Z,3.10
2018-12-10T16:18:55.469Z,3.10
2018-12-10T16:21:24.332Z,3.20
2018-12-10T16:23:52.895Z,3.20
2018-12-10T16:26:21.586Z,3.20
2018-12-10T16:28:49.842Z,3.20
2018-12-10T16:31:18.257Z,3.20
2018-12-10T16:33:46.773Z,3.30
2018-12-10T16:36:15.402Z,3.20
2018-12-10T16:38:44.618Z,3.20
2018-12-10T16:41:13.199Z,3.10
2018-12-10T16:43:41.781Z,3.00
2018-12-10T16:46:10.986Z,3.00
2018-12-10T16:48:39.250Z,2.90
2018-12-10T16:51:07.858Z,2.90
2018-12-10T16:53:37.321Z,2.80
2018-12-10T16:56:06.953Z,2.80
2018-12-10T16:58:35.624Z,2.70
2018-12-10T17:01:04.150Z,2.70
2018-12-10T17:03:32.525Z,2.60
2018-12-10T17:06:01.903Z,2.50
2018-12-10T17:08:30.374Z,2.40
2018-12-10T17:10:58.712Z,2.30
2018-12-10T17:13:27.182Z,2.20
2018-12-10T17:15:55.449Z,2.20
2018-12-10T17:18:24.032Z,2.10
2018-12-10T17:20:52.318Z,2.10
2018-12-10T17:23:20.733Z,2.10
2018-12-10T17:25:49.454Z,2.20
2018-12-10T17:28:18.759Z,2.20
2018-12-10T17:30:47.946Z,2.20
2018-12-10T17:33:17.058Z,2.20
2018-12-10T17:35:46.112Z,2.10
2018-12-10T17:38:15.181Z,2.10
2018-12-10T17:40:45.317Z,2.10
2018-12-10T17:43:15.857Z,2.10
2018-12-10T17:45:44.597Z,2.20
2018-12-10T17:48:13.297Z,2.20
2018-12-10T17:50:41.927Z,2.30
2018-12-10T17:53:10.788Z,2.30
2018-12-10T17:55:39.615Z,2.30
2018-12-10T17:58:08.124Z,2.30
2018-12-10T18:00:38.592Z,2.30
2018-12-10T18:03:07.332Z,2.40
2018-12-10T18:05:35.859Z,2.50
2018-12-10T18:08:04.361Z,2.50
2018-12-10T18:10:32.610Z,2.60
2018-12-10T18:13:00.934Z,2.60
2018-12-10T18:15:29.538Z,2.70
2018-12-10T18:17:58.793Z,2.70
2018-12-10T18:20:28.701Z,2.80
2018-12-10T18:22:57.170Z,2.80
2018-12-10T18:25:25.537Z,2.80
2018-12-10T18:27:54.579Z,2.80
2018-12-10T18:30:22.926Z,2.90
2018-12-10T18:32:51.193Z,2.80
2018-12-10T18:35:19.469Z,2.80
2018-12-10T18:37:49.315Z,2.80
2018-12-10T18:40:18.148Z,2.60
2018-12-10T18:42:47.465Z,2.10
2018-12-10T18:45:18.720Z,1.90
2018-12-10T18:47:46.981Z,1.70
2018-12-10T18:50:15.765Z,1.70
2018-12-10T18:52:44.306Z,1.70
2018-12-10T18:55:12.639Z,1.80
2018-12-10T18:57:42.001Z,1.90
2018-12-10T19:00:13.046Z,2.00
2018-12-10T19:02:41.774Z,2.10
2018-12-10T19:05:10.247Z,2.10
2018-12-10T19:07:38.772Z,2.20
2018-12-10T19:10:08.820Z,2.20
2018-12-10T19:12:38.790Z,2.20
2018-12-10T19:15:09.634Z,2.20
2018-12-10T19:17:38.092Z,2.20
2018-12-10T19:20:13.351Z,2.10
2018-12-10T19:22:38.227Z,2.20
2018-12-10T19:25:06.621Z,2.20
2018-12-10T19:27:35.159Z,2.20
2018-12-10T19:30:05.011Z,2.30
2018-12-10T19:32:33.632Z,2.40
2018-12-10T19:35:03.697Z,2.40
2018-12-10T19:37:32.050Z,2.40
2018-12-10T19:40:00.493Z,2.40
2018-12-10T19:42:28.746Z,2.40
2018-12-10T19:44:57.434Z,2.40
2018-12-10T19:47:26.034Z,2.40
2018-12-10T19:49:54.404Z,2.60
2018-12-10T19:52:23.300Z,2.50
2018-12-10T19:54:52.423Z,2.50
2018-12-10T19:57:21.060Z,2.40
2018-12-10T19:59:49.287Z,2.40
2018-12-10T20:02:18.541Z,2.40
2018-12-10T20:04:48.050Z,2.40
2018-12-10T20:07:17.826Z,2.40
2018-12-10T20:09:46.500Z,2.40
2018-12-10T20:12:15.929Z,2.40
2018-12-10T20:14:45.683Z,2.40
2018-12-10T20:17:15.239Z,2.30
2018-12-10T20:19:44.726Z,2.30
2018-12-10T20:22:13.830Z,2.30
2018-12-10T20:24:42.555Z,2.20
2018-12-10T20:27:11.109Z,2.20
2018-12-10T20:29:39.582Z,2.20
2018-12-10T20:32:08.057Z,2.30
2018-12-10T20:34:36.695Z,2.40
2018-12-10T20:37:05.198Z,2.40
2018-12-10T20:39:33.565Z,2.40
2018-12-10T20:42:03.071Z,2.30
2018-12-10T20:44:31.608Z,2.40
2018-12-10T20:47:00.206Z,2.40
2018-12-10T20:49:28.606Z,2.40
2018-12-10T20:51:57.177Z,2.40
2018-12-10T20:54:26.018Z,2.50
2018-12-10T20:56:54.413Z,2.50
2018-12-10T20:59:22.625Z,2.50
2018-12-10T21:01:51.376Z,2.50
2018-12-10T21:04:20.610Z,2.60
2018-12-10T21:06:48.902Z,2.60
2018-12-10T21:09:17.850Z,2.60
2018-12-10T21:11:46.204Z,2.60
2018-12-10T21:14:14.758Z,2.60
2018-12-10T21:16:43.006Z,2.60
2018-12-10T21:19:11.645Z,2.60
2018-12-10T21:21:40.401Z,2.60
2018-12-10T21:24:09.874Z,2.60
2018-12-10T21:26:38.393Z,2.50
2018-12-10T21:29:07.122Z,2.50
2018-12-10T21:31:35.381Z,2.40
2018-12-10T21:34:03.997Z,2.40
2018-12-10T21:36:33.502Z,2.40
2018-12-10T21:39:02.122Z,2.40
2018-12-10T21:41:30.405Z,2.30
2018-12-10T21:44:00.059Z,2.30
2018-12-10T21:46:28.401Z,2.30
2018-12-10T21:48:57.130Z,2.30
2018-12-10T21:51:25.496Z,2.30
2018-12-10T21:53:54.106Z,2.40
2018-12-10T21:56:23.074Z,2.30
2018-12-10T21:58:52.181Z,2.30
2018-12-10T22:01:21.105Z,2.30
2018-12-10T22:03:50.089Z,2.20
2018-12-10T22:06:19.115Z,2.20
2018-12-10T22:08:47.993Z,2.10
2018-12-10T22:11:17.771Z,2.00
2018-12-10T22:13:46.447Z,2.00
2018-12-10T22:16:15.352Z,2.00
2018-12-10T22:18:43.980Z,2.00
2018-12-10T22:21:12.944Z,2.00
2018-12-10T22:23:42.181Z,2.10
2018-12-10T22:26:11.813Z,2.10
2018-12-10T22:28:40.088Z,2.10
2018-12-10T22:31:08.724Z,2.00
2018-12-10T22:33:37.029Z,2.00
2018-12-10T22:36:05.256Z,2.10
2018-12-10T22:38:33.928Z,2.10
2018-12-10T22:41:03.227Z,2.10
2018-12-10T22:43:34.374Z,2.10
2018-12-10T22:46:02.856Z,2.10
2018-12-10T22:48:32.198Z,2.10
2018-12-10T22:51:01.441Z,2.00
2018-12-10T22:53:30.331Z,2.00
2018-12-10T22:55:59.710Z,1.90
2018-12-10T22:58:28.813Z,1.90
2018-12-10T23:00:58.105Z,1.90
2018-12-10T23:03:26.489Z,1.90
2018-12-10T23:05:55.017Z,1.90
2018-12-10T23:08:23.253Z,1.90
2018-12-10T23:10:52.734Z,1.80
2018-12-10T23:13:21.913Z,1.80
2018-12-10T23:15:50.415Z,1.70
2018-12-10T23:18:19.193Z,1.80
2018-12-10T23:20:47.942Z,1.80
2018-12-10T23:23:16.221Z,1.70
2018-12-10T23:25:44.962Z,1.70
2018-12-10T23:28:14.935Z,1.70
2018-12-10T23:30:43.448Z,1.70
2018-12-10T23:33:12.134Z,1.80
2018-12-10T23:35:41.546Z,1.80
2018-12-10T23:38:09.784Z,1.70
2018-12-10T23:40:38.259Z,1.70
2018-12-10T23:43:12.309Z,1.70
2018-12-10T23:45:41.635Z,1.70
2018-12-10T23:48:09.869Z,1.80
2018-12-10T23:50:38.222Z,1.80
2018-12-10T23:53:07.976Z,1.80
2018-12-10T23:55:36.634Z,1.90
2018-12-10T23:58:05.396Z,1.80
